sensor_id;sensor_type;location;lat;lon;timestamp;P1;durP1;ratioP1;P2;durP2;ratioP2
17935;SDS011;9093;52.062;4.508;2023-02-05T00:01:57;13.85;;;4.95;;
17935;SDS011;9093;52.062;4.508;2023-02-05T00:04:38;11.70;;;4.75;;
17935;SDS011;9093;52.062;4.508;2023-02-05T00:07:18;10.63;;;4.68;;
17935;SDS011;9093;52.062;4.508;2023-02-05T00:09:58;12.50;;;5.25;;
17935;SDS011;9093;52.062;4.508;2023-02-05T00:12:39;8.93;;;4.28;;
17935;SDS011;9093;52.062;4.508;2023-02-05T00:15:19;10.95;;;5.20;;
17935;SDS011;9093;52.062;4.508;2023-02-05T00:17:59;11.35;;;4.95;;
17935;SDS011;9093;52.062;4.508;2023-02-05T00:20:40;10.65;;;4.07;;
17935;SDS011;9093;52.062;4.508;2023-02-05T00:23:20;15.32;;;5.60;;
17935;SDS011;9093;52.062;4.508;2023-02-05T00:26:01;17.00;;;4.60;;
17935;SDS011;9093;52.062;4.508;2023-02-05T00:28:42;12.55;;;4.45;;
17935;SDS011;9093;52.062;4.508;2023-02-05T00:31:22;8.73;;;4.45;;
17935;SDS011;9093;52.062;4.508;2023-02-05T00:34:04;7.63;;;3.35;;
17935;SDS011;9093;52.062;4.508;2023-02-05T00:36:44;7.30;;;3.85;;
17935;SDS011;9093;52.062;4.508;2023-02-05T00:39:24;10.63;;;4.07;;
17935;SDS011;9093;52.062;4.508;2023-02-05T00:42:05;10.13;;;3.50;;
17935;SDS011;9093;52.062;4.508;2023-02-05T00:44:45;10.05;;;3.60;;
17935;SDS011;9093;52.062;4.508;2023-02-05T00:47:25;8.90;;;2.70;;
17935;SDS011;9093;52.062;4.508;2023-02-05T00:50:06;4.82;;;2.80;;
17935;SDS011;9093;52.062;4.508;2023-02-05T00:52:46;11.55;;;3.97;;
17935;SDS011;9093;52.062;4.508;2023-02-05T00:55:26;6.00;;;2.58;;
17935;SDS011;9093;52.062;4.508;2023-02-05T00:58:07;6.13;;;2.80;;
17935;SDS011;9093;52.062;4.508;2023-02-05T01:00:48;8.35;;;3.00;;
17935;SDS011;9093;52.062;4.508;2023-02-05T01:03:29;6.93;;;2.58;;
17935;SDS011;9093;52.062;4.508;2023-02-05T01:06:10;5.22;;;2.20;;
17935;SDS011;9093;52.062;4.508;2023-02-05T01:08:50;9.45;;;1.95;;
17935;SDS011;9093;52.062;4.508;2023-02-05T01:11:30;3.75;;;1.77;;
17935;SDS011;9093;52.062;4.508;2023-02-05T01:14:11;6.55;;;1.83;;
17935;SDS011;9093;52.062;4.508;2023-02-05T01:16:51;2.75;;;1.50;;
17935;SDS011;9093;52.062;4.508;2023-02-05T01:19:32;7.00;;;1.30;;
17935;SDS011;9093;52.062;4.508;2023-02-05T01:22:13;3.70;;;1.55;;
17935;SDS011;9093;52.062;4.508;2023-02-05T01:24:54;4.75;;;1.20;;
17935;SDS011;9093;52.062;4.508;2023-02-05T01:27:35;3.15;;;1.40;;
17935;SDS011;9093;52.062;4.508;2023-02-05T01:30:16;7.70;;;0.95;;
17935;SDS011;9093;52.062;4.508;2023-02-05T01:32:57;6.00;;;1.23;;
17935;SDS011;9093;52.062;4.508;2023-02-05T01:35:37;2.95;;;1.10;;
17935;SDS011;9093;52.062;4.508;2023-02-05T01:38:17;2.50;;;1.13;;
17935;SDS011;9093;52.062;4.508;2023-02-05T01:40:57;11.35;;;1.48;;
17935;SDS011;9093;52.062;4.508;2023-02-05T01:43:38;1.95;;;1.35;;
17935;SDS011;9093;52.062;4.508;2023-02-05T01:46:20;3.58;;;1.50;;
17935;SDS011;9093;52.062;4.508;2023-02-05T01:49:05;2.30;;;0.70;;
17935;SDS011;9093;52.062;4.508;2023-02-05T01:51:48;2.33;;;0.90;;
17935;SDS011;9093;52.062;4.508;2023-02-05T01:54:32;3.58;;;0.93;;
17935;SDS011;9093;52.062;4.508;2023-02-05T01:57:17;5.60;;;1.50;;
17935;SDS011;9093;52.062;4.508;2023-02-05T02:00:02;2.45;;;0.95;;
17935;SDS011;9093;52.062;4.508;2023-02-05T02:02:44;14.05;;;1.20;;
17935;SDS011;9093;52.062;4.508;2023-02-05T02:05:25;1.38;;;0.70;;
17935;SDS011;9093;52.062;4.508;2023-02-05T02:08:05;1.30;;;0.80;;
17935;SDS011;9093;52.062;4.508;2023-02-05T02:10:46;5.63;;;0.82;;
17935;SDS011;9093;52.062;4.508;2023-02-05T02:13:28;3.55;;;0.73;;
17935;SDS011;9093;52.062;4.508;2023-02-05T02:16:12;2.60;;;0.98;;
17935;SDS011;9093;52.062;4.508;2023-02-05T02:18:53;1.35;;;0.70;;
17935;SDS011;9093;52.062;4.508;2023-02-05T02:21:37;3.67;;;0.90;;
17935;SDS011;9093;52.062;4.508;2023-02-05T02:24:33;0.95;;;0.80;;
17935;SDS011;9093;52.062;4.508;2023-02-05T02:30:41;4.53;;;1.70;;
17935;SDS011;9093;52.062;4.508;2023-02-05T02:36:08;1.80;;;1.27;;
17935;SDS011;9093;52.062;4.508;2023-02-05T02:44:34;2.92;;;0.95;;
17935;SDS011;9093;52.062;4.508;2023-02-05T02:47:19;6.88;;;0.88;;
17935;SDS011;9093;52.062;4.508;2023-02-05T02:50:14;7.75;;;1.02;;
17935;SDS011;9093;52.062;4.508;2023-02-05T02:53:02;9.25;;;1.10;;
17935;SDS011;9093;52.062;4.508;2023-02-05T02:55:53;2.42;;;1.08;;
17935;SDS011;9093;52.062;4.508;2023-02-05T02:58:37;5.90;;;1.42;;
17935;SDS011;9093;52.062;4.508;2023-02-05T03:01:22;11.40;;;1.48;;
17935;SDS011;9093;52.062;4.508;2023-02-05T03:04:14;3.47;;;1.40;;
17935;SDS011;9093;52.062;4.508;2023-02-05T03:07:10;3.85;;;1.17;;
17935;SDS011;9093;52.062;4.508;2023-02-05T03:10:05;6.57;;;1.20;;
17935;SDS011;9093;52.062;4.508;2023-02-05T03:12:50;8.18;;;1.85;;
17935;SDS011;9093;52.062;4.508;2023-02-05T03:15:30;4.63;;;1.40;;
17935;SDS011;9093;52.062;4.508;2023-02-05T03:18:11;4.80;;;1.80;;
17935;SDS011;9093;52.062;4.508;2023-02-05T03:20:58;6.30;;;1.92;;
17935;SDS011;9093;52.062;4.508;2023-02-05T03:23:42;7.47;;;2.42;;
17935;SDS011;9093;52.062;4.508;2023-02-05T03:26:24;3.10;;;1.67;;
17935;SDS011;9093;52.062;4.508;2023-02-05T03:29:17;3.40;;;1.80;;
17935;SDS011;9093;52.062;4.508;2023-02-05T03:35:40;6.97;;;2.13;;
17935;SDS011;9093;52.062;4.508;2023-02-05T03:47:33;7.50;;;2.25;;
17935;SDS011;9093;52.062;4.508;2023-02-05T03:53:13;9.75;;;2.50;;
17935;SDS011;9093;52.062;4.508;2023-02-05T03:56:00;8.35;;;2.17;;
17935;SDS011;9093;52.062;4.508;2023-02-05T03:58:45;5.00;;;2.45;;
17935;SDS011;9093;52.062;4.508;2023-02-05T04:01:28;5.05;;;2.35;;
17935;SDS011;9093;52.062;4.508;2023-02-05T04:04:13;6.28;;;2.17;;
17935;SDS011;9093;52.062;4.508;2023-02-05T04:06:53;8.35;;;2.30;;
17935;SDS011;9093;52.062;4.508;2023-02-05T04:09:33;2.78;;;1.80;;
17935;SDS011;9093;52.062;4.508;2023-02-05T04:12:14;2.17;;;1.52;;
17935;SDS011;9093;52.062;4.508;2023-02-05T04:14:54;4.10;;;1.80;;
17935;SDS011;9093;52.062;4.508;2023-02-05T04:17:34;3.80;;;1.65;;
17935;SDS011;9093;52.062;4.508;2023-02-05T04:20:15;1.83;;;1.42;;
17935;SDS011;9093;52.062;4.508;2023-02-05T04:22:55;2.70;;;1.60;;
17935;SDS011;9093;52.062;4.508;2023-02-05T04:25:36;2.30;;;1.60;;
17935;SDS011;9093;52.062;4.508;2023-02-05T04:28:17;3.20;;;1.80;;
17935;SDS011;9093;52.062;4.508;2023-02-05T04:30:58;0.90;;;0.80;;
17935;SDS011;9093;52.062;4.508;2023-02-05T04:33:38;1.42;;;1.13;;
17935;SDS011;9093;52.062;4.508;2023-02-05T04:36:19;4.93;;;1.30;;
17935;SDS011;9093;52.062;4.508;2023-02-05T04:39:00;4.03;;;2.08;;
17935;SDS011;9093;52.062;4.508;2023-02-05T04:41:40;1.85;;;0.98;;
17935;SDS011;9093;52.062;4.508;2023-02-05T04:44:20;7.65;;;1.40;;
17935;SDS011;9093;52.062;4.508;2023-02-05T04:47:01;1.30;;;0.80;;
17935;SDS011;9093;52.062;4.508;2023-02-05T04:49:41;5.05;;;0.80;;
17935;SDS011;9093;52.062;4.508;2023-02-05T04:52:21;3.72;;;0.70;;
17935;SDS011;9093;52.062;4.508;2023-02-05T04:55:02;3.20;;;0.82;;
17935;SDS011;9093;52.062;4.508;2023-02-05T04:57:42;4.70;;;1.20;;
17935;SDS011;9093;52.062;4.508;2023-02-05T05:00:23;9.35;;;0.90;;
17935;SDS011;9093;52.062;4.508;2023-02-05T05:03:03;14.23;;;0.70;;
17935;SDS011;9093;52.062;4.508;2023-02-05T05:05:44;4.90;;;0.70;;
17935;SDS011;9093;52.062;4.508;2023-02-05T05:08:26;2.95;;;1.23;;
17935;SDS011;9093;52.062;4.508;2023-02-05T05:11:08;11.48;;;1.50;;
17935;SDS011;9093;52.062;4.508;2023-02-05T05:13:53;14.48;;;1.45;;
17935;SDS011;9093;52.062;4.508;2023-02-05T05:16:34;12.30;;;1.42;;
17935;SDS011;9093;52.062;4.508;2023-02-05T05:19:14;3.08;;;0.80;;
17935;SDS011;9093;52.062;4.508;2023-02-05T05:21:55;7.32;;;1.02;;
17935;SDS011;9093;52.062;4.508;2023-02-05T05:24:35;8.48;;;1.25;;
17935;SDS011;9093;52.062;4.508;2023-02-05T05:27:16;10.43;;;1.20;;
17935;SDS011;9093;52.062;4.508;2023-02-05T05:29:57;9.73;;;1.65;;
17935;SDS011;9093;52.062;4.508;2023-02-05T05:32:37;7.22;;;1.30;;
17935;SDS011;9093;52.062;4.508;2023-02-05T05:35:18;6.32;;;1.15;;
17935;SDS011;9093;52.062;4.508;2023-02-05T05:37:58;6.25;;;1.52;;
17935;SDS011;9093;52.062;4.508;2023-02-05T05:40:39;1.67;;;0.65;;
17935;SDS011;9093;52.062;4.508;2023-02-05T05:43:42;6.50;;;1.10;;
17935;SDS011;9093;52.062;4.508;2023-02-05T05:49:06;8.95;;;1.48;;
17935;SDS011;9093;52.062;4.508;2023-02-05T05:51:46;3.70;;;1.25;;
17935;SDS011;9093;52.062;4.508;2023-02-05T05:54:26;1.50;;;0.80;;
17935;SDS011;9093;52.062;4.508;2023-02-05T05:57:07;11.60;;;0.70;;
17935;SDS011;9093;52.062;4.508;2023-02-05T05:59:47;5.07;;;1.55;;
17935;SDS011;9093;52.062;4.508;2023-02-05T06:02:28;8.60;;;1.25;;
17935;SDS011;9093;52.062;4.508;2023-02-05T06:05:08;2.78;;;1.15;;
17935;SDS011;9093;52.062;4.508;2023-02-05T06:07:49;1.60;;;0.80;;
17935;SDS011;9093;52.062;4.508;2023-02-05T06:10:30;9.85;;;1.25;;
17935;SDS011;9093;52.062;4.508;2023-02-05T06:13:11;1.23;;;0.75;;
17935;SDS011;9093;52.062;4.508;2023-02-05T06:15:52;10.30;;;1.60;;
17935;SDS011;9093;52.062;4.508;2023-02-05T06:18:33;8.00;;;0.88;;
17935;SDS011;9093;52.062;4.508;2023-02-05T06:21:14;6.97;;;1.48;;
17935;SDS011;9093;52.062;4.508;2023-02-05T06:23:54;11.02;;;1.55;;
17935;SDS011;9093;52.062;4.508;2023-02-05T06:26:34;9.75;;;0.93;;
17935;SDS011;9093;52.062;4.508;2023-02-05T06:29:15;4.60;;;0.80;;
17935;SDS011;9093;52.062;4.508;2023-02-05T06:31:55;5.82;;;1.10;;
17935;SDS011;9093;52.062;4.508;2023-02-05T06:34:35;4.07;;;1.42;;
17935;SDS011;9093;52.062;4.508;2023-02-05T06:37:16;11.40;;;1.40;;
17935;SDS011;9093;52.062;4.508;2023-02-05T06:39:56;8.13;;;1.35;;
17935;SDS011;9093;52.062;4.508;2023-02-05T06:42:36;8.10;;;2.25;;
17935;SDS011;9093;52.062;4.508;2023-02-05T06:45:17;2.25;;;1.30;;
17935;SDS011;9093;52.062;4.508;2023-02-05T06:47:57;3.33;;;1.15;;
17935;SDS011;9093;52.062;4.508;2023-02-05T06:50:40;10.60;;;1.40;;
17935;SDS011;9093;52.062;4.508;2023-02-05T06:53:20;5.82;;;2.15;;
17935;SDS011;9093;52.062;4.508;2023-02-05T06:56:01;11.18;;;1.67;;
17935;SDS011;9093;52.062;4.508;2023-02-05T06:58:41;12.85;;;1.13;;
17935;SDS011;9093;52.062;4.508;2023-02-05T07:01:21;6.95;;;1.48;;
17935;SDS011;9093;52.062;4.508;2023-02-05T07:04:02;12.90;;;1.52;;
17935;SDS011;9093;52.062;4.508;2023-02-05T07:06:43;7.90;;;1.35;;
17935;SDS011;9093;52.062;4.508;2023-02-05T07:09:23;13.82;;;1.40;;
17935;SDS011;9093;52.062;4.508;2023-02-05T07:12:04;11.85;;;1.85;;
17935;SDS011;9093;52.062;4.508;2023-02-05T07:14:45;7.53;;;1.63;;
17935;SDS011;9093;52.062;4.508;2023-02-05T07:17:25;8.68;;;1.00;;
17935;SDS011;9093;52.062;4.508;2023-02-05T07:20:06;16.52;;;2.05;;
17935;SDS011;9093;52.062;4.508;2023-02-05T07:22:46;7.15;;;1.00;;
17935;SDS011;9093;52.062;4.508;2023-02-05T07:25:27;13.25;;;1.23;;
17935;SDS011;9093;52.062;4.508;2023-02-05T07:28:07;8.68;;;1.13;;
17935;SDS011;9093;52.062;4.508;2023-02-05T07:30:48;23.77;;;1.85;;
17935;SDS011;9093;52.062;4.508;2023-02-05T07:33:28;8.00;;;1.50;;
17935;SDS011;9093;52.062;4.508;2023-02-05T07:36:09;3.20;;;1.17;;
17935;SDS011;9093;52.062;4.508;2023-02-05T07:38:52;2.88;;;1.17;;
17935;SDS011;9093;52.062;4.508;2023-02-05T07:41:33;7.80;;;1.42;;
17935;SDS011;9093;52.062;4.508;2023-02-05T07:44:13;16.80;;;1.98;;
17935;SDS011;9093;52.062;4.508;2023-02-05T07:46:54;2.65;;;1.10;;
17935;SDS011;9093;52.062;4.508;2023-02-05T07:49:34;13.70;;;2.08;;
17935;SDS011;9093;52.062;4.508;2023-02-05T07:52:15;10.13;;;1.50;;
17935;SDS011;9093;52.062;4.508;2023-02-05T07:54:55;7.28;;;1.80;;
17935;SDS011;9093;52.062;4.508;2023-02-05T07:57:35;18.30;;;3.25;;
17935;SDS011;9093;52.062;4.508;2023-02-05T08:00:16;14.88;;;1.60;;
17935;SDS011;9093;52.062;4.508;2023-02-05T08:02:56;10.43;;;1.77;;
17935;SDS011;9093;52.062;4.508;2023-02-05T08:05:37;12.35;;;2.17;;
17935;SDS011;9093;52.062;4.508;2023-02-05T08:08:18;11.40;;;1.58;;
17935;SDS011;9093;52.062;4.508;2023-02-05T08:11:00;11.50;;;1.50;;
17935;SDS011;9093;52.062;4.508;2023-02-05T08:13:42;10.25;;;1.67;;
17935;SDS011;9093;52.062;4.508;2023-02-05T08:16:23;12.20;;;2.35;;
17935;SDS011;9093;52.062;4.508;2023-02-05T08:19:13;8.63;;;2.72;;
17935;SDS011;9093;52.062;4.508;2023-02-05T08:21:58;12.57;;;2.05;;
17935;SDS011;9093;52.062;4.508;2023-02-05T08:24:38;20.85;;;1.88;;
17935;SDS011;9093;52.062;4.508;2023-02-05T08:27:19;21.30;;;2.35;;
17935;SDS011;9093;52.062;4.508;2023-02-05T08:30:00;13.05;;;2.40;;
17935;SDS011;9093;52.062;4.508;2023-02-05T08:32:41;8.65;;;2.15;;
17935;SDS011;9093;52.062;4.508;2023-02-05T08:35:26;13.77;;;2.08;;
17935;SDS011;9093;52.062;4.508;2023-02-05T08:38:06;14.18;;;2.33;;
17935;SDS011;9093;52.062;4.508;2023-02-05T08:40:46;12.18;;;1.98;;
17935;SDS011;9093;52.062;4.508;2023-02-05T08:43:27;11.52;;;2.28;;
17935;SDS011;9093;52.062;4.508;2023-02-05T08:46:07;20.73;;;2.65;;
17935;SDS011;9093;52.062;4.508;2023-02-05T08:48:51;7.13;;;1.65;;
17935;SDS011;9093;52.062;4.508;2023-02-05T08:51:32;16.38;;;1.88;;
17935;SDS011;9093;52.062;4.508;2023-02-05T08:54:14;15.20;;;2.25;;
17935;SDS011;9093;52.062;4.508;2023-02-05T08:56:55;14.40;;;1.80;;
17935;SDS011;9093;52.062;4.508;2023-02-05T08:59:35;25.60;;;1.92;;
17935;SDS011;9093;52.062;4.508;2023-02-05T09:02:15;13.55;;;1.90;;
17935;SDS011;9093;52.062;4.508;2023-02-05T09:04:56;22.70;;;2.45;;
17935;SDS011;9093;52.062;4.508;2023-02-05T09:07:39;15.18;;;2.03;;
17935;SDS011;9093;52.062;4.508;2023-02-05T09:10:20;14.18;;;1.65;;
17935;SDS011;9093;52.062;4.508;2023-02-05T09:13:00;11.10;;;1.58;;
17935;SDS011;9093;52.062;4.508;2023-02-05T09:15:44;11.07;;;1.83;;
17935;SDS011;9093;52.062;4.508;2023-02-05T09:18:26;17.08;;;1.85;;
17935;SDS011;9093;52.062;4.508;2023-02-05T09:21:07;18.00;;;2.33;;
17935;SDS011;9093;52.062;4.508;2023-02-05T09:23:49;15.20;;;2.00;;
17935;SDS011;9093;52.062;4.508;2023-02-05T09:26:30;10.05;;;1.92;;
17935;SDS011;9093;52.062;4.508;2023-02-05T09:29:10;20.88;;;3.25;;
17935;SDS011;9093;52.062;4.508;2023-02-05T09:31:50;15.13;;;2.13;;
17935;SDS011;9093;52.062;4.508;2023-02-05T09:34:35;33.50;;;3.05;;
17935;SDS011;9093;52.062;4.508;2023-02-05T09:37:15;20.15;;;2.72;;
17935;SDS011;9093;52.062;4.508;2023-02-05T09:39:56;13.98;;;2.53;;
17935;SDS011;9093;52.062;4.508;2023-02-05T09:42:43;19.55;;;1.75;;
17935;SDS011;9093;52.062;4.508;2023-02-05T09:45:59;8.80;;;1.80;;
17935;SDS011;9093;52.062;4.508;2023-02-05T09:51:41;12.20;;;2.15;;
17935;SDS011;9093;52.062;4.508;2023-02-05T09:54:34;15.48;;;2.10;;
17935;SDS011;9093;52.062;4.508;2023-02-05T09:57:26;23.70;;;2.83;;
17935;SDS011;9093;52.062;4.508;2023-02-05T10:00:24;16.17;;;2.30;;
17935;SDS011;9093;52.062;4.508;2023-02-05T10:03:16;11.45;;;1.50;;
17935;SDS011;9093;52.062;4.508;2023-02-05T10:08:58;10.15;;;1.48;;
17935;SDS011;9093;52.062;4.508;2023-02-05T10:24:05;17.90;;;1.92;;
17935;SDS011;9093;52.062;4.508;2023-02-05T10:29:56;19.00;;;1.90;;
17935;SDS011;9093;52.062;4.508;2023-02-05T10:32:47;23.33;;;3.35;;
17935;SDS011;9093;52.062;4.508;2023-02-05T10:35:48;17.90;;;2.38;;
17935;SDS011;9093;52.062;4.508;2023-02-05T10:38:39;21.35;;;2.78;;
17935;SDS011;9093;52.062;4.508;2023-02-05T10:41:25;17.83;;;2.70;;
17935;SDS011;9093;52.062;4.508;2023-02-05T10:44:41;20.80;;;2.35;;
17935;SDS011;9093;52.062;4.508;2023-02-05T10:47:47;13.27;;;2.92;;
17935;SDS011;9093;52.062;4.508;2023-02-05T10:50:47;21.88;;;2.25;;
17935;SDS011;9093;52.062;4.508;2023-02-05T10:53:32;14.38;;;1.63;;
17935;SDS011;9093;52.062;4.508;2023-02-05T10:56:16;13.43;;;1.65;;
17935;SDS011;9093;52.062;4.508;2023-02-05T10:58:58;24.23;;;1.83;;
17935;SDS011;9093;52.062;4.508;2023-02-05T11:01:40;12.02;;;2.47;;
17935;SDS011;9093;52.062;4.508;2023-02-05T11:04:24;21.33;;;3.38;;
17935;SDS011;9093;52.062;4.508;2023-02-05T11:07:17;23.02;;;2.28;;
17935;SDS011;9093;52.062;4.508;2023-02-05T11:10:23;21.27;;;2.30;;
17935;SDS011;9093;52.062;4.508;2023-02-05T11:13:18;14.02;;;1.92;;
17935;SDS011;9093;52.062;4.508;2023-02-05T11:16:07;17.27;;;2.25;;
17935;SDS011;9093;52.062;4.508;2023-02-05T11:18:54;15.10;;;2.00;;
17935;SDS011;9093;52.062;4.508;2023-02-05T11:21:44;18.48;;;2.63;;
17935;SDS011;9093;52.062;4.508;2023-02-05T11:24:27;14.88;;;1.50;;
17935;SDS011;9093;52.062;4.508;2023-02-05T11:29:55;18.58;;;2.55;;
17935;SDS011;9093;52.062;4.508;2023-02-05T11:32:38;21.58;;;3.30;;
17935;SDS011;9093;52.062;4.508;2023-02-05T11:38:06;18.95;;;2.30;;
17935;SDS011;9093;52.062;4.508;2023-02-05T11:40:51;14.07;;;2.38;;
17935;SDS011;9093;52.062;4.508;2023-02-05T11:43:48;11.50;;;2.20;;
17935;SDS011;9093;52.062;4.508;2023-02-05T11:46:32;7.57;;;2.00;;
17935;SDS011;9093;52.062;4.508;2023-02-05T11:49:22;10.65;;;1.50;;
17935;SDS011;9093;52.062;4.508;2023-02-05T11:52:21;12.07;;;2.63;;
17935;SDS011;9093;52.062;4.508;2023-02-05T11:55:05;7.43;;;1.65;;
17935;SDS011;9093;52.062;4.508;2023-02-05T11:57:47;11.73;;;1.50;;
17935;SDS011;9093;52.062;4.508;2023-02-05T12:00:37;16.45;;;1.65;;
17935;SDS011;9093;52.062;4.508;2023-02-05T12:03:36;18.15;;;2.72;;
17935;SDS011;9093;52.062;4.508;2023-02-05T12:06:17;3.95;;;1.23;;
17935;SDS011;9093;52.062;4.508;2023-02-05T12:09:03;20.00;;;2.55;;
17935;SDS011;9093;52.062;4.508;2023-02-05T12:12:01;13.63;;;1.98;;
17935;SDS011;9093;52.062;4.508;2023-02-05T12:18:13;17.02;;;2.03;;
17935;SDS011;9093;52.062;4.508;2023-02-05T12:21:14;8.13;;;1.90;;
17935;SDS011;9093;52.062;4.508;2023-02-05T12:24:13;17.33;;;2.20;;
17935;SDS011;9093;52.062;4.508;2023-02-05T12:30:16;20.98;;;1.80;;
17935;SDS011;9093;52.062;4.508;2023-02-05T12:39:38;10.00;;;1.48;;
17935;SDS011;9093;52.062;4.508;2023-02-05T12:42:29;18.95;;;1.98;;
17935;SDS011;9093;52.062;4.508;2023-02-05T12:45:27;16.30;;;1.95;;
17935;SDS011;9093;52.062;4.508;2023-02-05T12:57:41;17.65;;;2.03;;
17935;SDS011;9093;52.062;4.508;2023-02-05T13:00:27;13.63;;;2.00;;
17935;SDS011;9093;52.062;4.508;2023-02-05T13:03:19;20.05;;;2.58;;
17935;SDS011;9093;52.062;4.508;2023-02-05T13:06:15;19.83;;;1.80;;
17935;SDS011;9093;52.062;4.508;2023-02-05T13:09:18;10.68;;;1.50;;
17935;SDS011;9093;52.062;4.508;2023-02-05T13:12:06;6.93;;;1.42;;
17935;SDS011;9093;52.062;4.508;2023-02-05T13:15:01;28.50;;;1.95;;
17935;SDS011;9093;52.062;4.508;2023-02-05T13:21:03;8.13;;;1.80;;
17935;SDS011;9093;52.062;4.508;2023-02-05T13:27:43;12.27;;;1.63;;
17935;SDS011;9093;52.062;4.508;2023-02-05T13:30:46;23.33;;;2.42;;
17935;SDS011;9093;52.062;4.508;2023-02-05T13:33:30;5.90;;;1.45;;
17935;SDS011;9093;52.062;4.508;2023-02-05T13:41:57;9.32;;;2.13;;
17935;SDS011;9093;52.062;4.508;2023-02-05T14:00:08;18.40;;;2.17;;
17935;SDS011;9093;52.062;4.508;2023-02-05T14:02:53;19.52;;;2.47;;
17935;SDS011;9093;52.062;4.508;2023-02-05T14:05:36;16.20;;;2.80;;
17935;SDS011;9093;52.062;4.508;2023-02-05T14:08:23;17.25;;;2.95;;
17935;SDS011;9093;52.062;4.508;2023-02-05T14:11:06;20.63;;;2.53;;
17935;SDS011;9093;52.062;4.508;2023-02-05T14:17:00;13.38;;;1.83;;
17935;SDS011;9093;52.062;4.508;2023-02-05T14:31:06;16.25;;;1.83;;
17935;SDS011;9093;52.062;4.508;2023-02-05T14:33:47;16.67;;;1.90;;
17935;SDS011;9093;52.062;4.508;2023-02-05T14:36:29;19.52;;;2.63;;
17935;SDS011;9093;52.062;4.508;2023-02-05T14:39:19;18.15;;;2.58;;
17935;SDS011;9093;52.062;4.508;2023-02-05T14:42:05;11.40;;;1.63;;
17935;SDS011;9093;52.062;4.508;2023-02-05T14:44:51;10.73;;;1.92;;
17935;SDS011;9093;52.062;4.508;2023-02-05T14:47:37;10.48;;;1.80;;
17935;SDS011;9093;52.062;4.508;2023-02-05T14:50:24;13.13;;;2.20;;
17935;SDS011;9093;52.062;4.508;2023-02-05T14:53:15;21.70;;;2.97;;
17935;SDS011;9093;52.062;4.508;2023-02-05T14:56:05;12.73;;;2.33;;
17935;SDS011;9093;52.062;4.508;2023-02-05T14:58:46;8.98;;;2.10;;
17935;SDS011;9093;52.062;4.508;2023-02-05T15:04:38;18.17;;;2.55;;
17935;SDS011;9093;52.062;4.508;2023-02-05T15:07:27;11.98;;;1.52;;
17935;SDS011;9093;52.062;4.508;2023-02-05T15:10:17;24.73;;;3.47;;
17935;SDS011;9093;52.062;4.508;2023-02-05T15:13:08;13.88;;;1.95;;
17935;SDS011;9093;52.062;4.508;2023-02-05T15:18:50;21.42;;;2.33;;
17935;SDS011;9093;52.062;4.508;2023-02-05T15:21:36;15.07;;;2.95;;
17935;SDS011;9093;52.062;4.508;2023-02-05T15:24:21;19.23;;;2.42;;
17935;SDS011;9093;52.062;4.508;2023-02-05T15:27:12;16.50;;;2.10;;
17935;SDS011;9093;52.062;4.508;2023-02-05T15:29:57;19.10;;;2.00;;
17935;SDS011;9093;52.062;4.508;2023-02-05T15:32:47;20.48;;;2.83;;
17935;SDS011;9093;52.062;4.508;2023-02-05T15:35:31;13.23;;;2.15;;
17935;SDS011;9093;52.062;4.508;2023-02-05T15:41:03;19.98;;;2.72;;
17935;SDS011;9093;52.062;4.508;2023-02-05T15:43:59;21.25;;;2.90;;
17935;SDS011;9093;52.062;4.508;2023-02-05T15:46:41;48.67;;;2.78;;
17935;SDS011;9093;52.062;4.508;2023-02-05T15:49:24;14.25;;;2.17;;
17935;SDS011;9093;52.062;4.508;2023-02-05T15:55:09;25.95;;;2.47;;
17935;SDS011;9093;52.062;4.508;2023-02-05T15:57:54;15.73;;;2.63;;
17935;SDS011;9093;52.062;4.508;2023-02-05T16:00:44;17.90;;;2.28;;
17935;SDS011;9093;52.062;4.508;2023-02-05T16:03:26;12.18;;;1.60;;
17935;SDS011;9093;52.062;4.508;2023-02-05T16:06:18;15.40;;;2.40;;
17935;SDS011;9093;52.062;4.508;2023-02-05T16:08:59;8.90;;;2.30;;
17935;SDS011;9093;52.062;4.508;2023-02-05T16:11:39;9.65;;;1.92;;
17935;SDS011;9093;52.062;4.508;2023-02-05T16:14:23;21.02;;;2.38;;
17935;SDS011;9093;52.062;4.508;2023-02-05T16:17:18;13.20;;;2.20;;
17935;SDS011;9093;52.062;4.508;2023-02-05T16:23:03;21.40;;;2.35;;
17935;SDS011;9093;52.062;4.508;2023-02-05T16:26:12;9.65;;;2.50;;
17935;SDS011;9093;52.062;4.508;2023-02-05T16:28:57;10.43;;;2.22;;
17935;SDS011;9093;52.062;4.508;2023-02-05T16:31:41;22.67;;;2.65;;
17935;SDS011;9093;52.062;4.508;2023-02-05T16:34:21;10.40;;;2.35;;
17935;SDS011;9093;52.062;4.508;2023-02-05T16:37:04;16.77;;;3.05;;
17935;SDS011;9093;52.062;4.508;2023-02-05T16:39:51;15.25;;;1.83;;
17935;SDS011;9093;52.062;4.508;2023-02-05T16:42:42;9.95;;;1.98;;
17935;SDS011;9093;52.062;4.508;2023-02-05T16:45:25;13.52;;;2.80;;
17935;SDS011;9093;52.062;4.508;2023-02-05T16:48:21;10.32;;;2.45;;
17935;SDS011;9093;52.062;4.508;2023-02-05T16:51:03;16.65;;;2.35;;
17935;SDS011;9093;52.062;4.508;2023-02-05T16:53:48;20.10;;;2.95;;
17935;SDS011;9093;52.062;4.508;2023-02-05T16:56:29;23.17;;;3.35;;
17935;SDS011;9093;52.062;4.508;2023-02-05T16:59:15;7.40;;;2.00;;
17935;SDS011;9093;52.062;4.508;2023-02-05T17:02:02;22.40;;;3.08;;
17935;SDS011;9093;52.062;4.508;2023-02-05T17:04:43;13.60;;;1.85;;
17935;SDS011;9093;52.062;4.508;2023-02-05T17:07:31;17.45;;;2.45;;
17935;SDS011;9093;52.062;4.508;2023-02-05T17:10:12;19.05;;;1.83;;
17935;SDS011;9093;52.062;4.508;2023-02-05T17:13:00;16.35;;;2.05;;
17935;SDS011;9093;52.062;4.508;2023-02-05T17:15:43;24.73;;;2.85;;
17935;SDS011;9093;52.062;4.508;2023-02-05T17:18:25;18.55;;;2.22;;
17935;SDS011;9093;52.062;4.508;2023-02-05T17:21:24;10.40;;;2.83;;
17935;SDS011;9093;52.062;4.508;2023-02-05T17:24:07;15.82;;;3.00;;
17935;SDS011;9093;52.062;4.508;2023-02-05T17:26:55;15.50;;;2.97;;
17935;SDS011;9093;52.062;4.508;2023-02-05T17:29:36;9.93;;;3.10;;
17935;SDS011;9093;52.062;4.508;2023-02-05T17:32:17;21.73;;;2.58;;
17935;SDS011;9093;52.062;4.508;2023-02-05T17:34:59;9.95;;;2.65;;
17935;SDS011;9093;52.062;4.508;2023-02-05T17:37:39;15.68;;;3.05;;
17935;SDS011;9093;52.062;4.508;2023-02-05T17:40:20;8.93;;;2.95;;
17935;SDS011;9093;52.062;4.508;2023-02-05T17:43:00;11.55;;;2.60;;
17935;SDS011;9093;52.062;4.508;2023-02-05T17:45:41;34.35;;;2.92;;
17935;SDS011;9093;52.062;4.508;2023-02-05T17:48:23;20.13;;;3.03;;
17935;SDS011;9093;52.062;4.508;2023-02-05T17:51:03;23.90;;;2.83;;
17935;SDS011;9093;52.062;4.508;2023-02-05T17:53:43;9.48;;;2.55;;
17935;SDS011;9093;52.062;4.508;2023-02-05T17:56:24;14.40;;;1.75;;
17935;SDS011;9093;52.062;4.508;2023-02-05T17:59:04;15.82;;;2.50;;
17935;SDS011;9093;52.062;4.508;2023-02-05T18:01:45;13.80;;;1.83;;
17935;SDS011;9093;52.062;4.508;2023-02-05T18:04:26;13.85;;;2.75;;
17935;SDS011;9093;52.062;4.508;2023-02-05T18:10:28;13.80;;;2.13;;
17935;SDS011;9093;52.062;4.508;2023-02-05T18:13:12;22.55;;;3.13;;
17935;SDS011;9093;52.062;4.508;2023-02-05T18:15:55;11.50;;;2.00;;
17935;SDS011;9093;52.062;4.508;2023-02-05T18:18:40;11.85;;;2.40;;
17935;SDS011;9093;52.062;4.508;2023-02-05T18:21:20;24.45;;;2.67;;
17935;SDS011;9093;52.062;4.508;2023-02-05T18:24:01;17.30;;;3.28;;
17935;SDS011;9093;52.062;4.508;2023-02-05T18:26:42;12.05;;;2.78;;
17935;SDS011;9093;52.062;4.508;2023-02-05T18:29:27;25.58;;;2.92;;
17935;SDS011;9093;52.062;4.508;2023-02-05T18:32:07;13.98;;;2.63;;
17935;SDS011;9093;52.062;4.508;2023-02-05T18:34:48;13.85;;;2.45;;
17935;SDS011;9093;52.062;4.508;2023-02-05T18:37:31;11.35;;;2.03;;
17935;SDS011;9093;52.062;4.508;2023-02-05T18:40:15;11.50;;;2.05;;
17935;SDS011;9093;52.062;4.508;2023-02-05T18:42:58;11.68;;;2.38;;
17935;SDS011;9093;52.062;4.508;2023-02-05T18:45:39;9.88;;;1.85;;
17935;SDS011;9093;52.062;4.508;2023-02-05T18:48:19;14.88;;;2.45;;
17935;SDS011;9093;52.062;4.508;2023-02-05T18:51:03;14.20;;;2.47;;
17935;SDS011;9093;52.062;4.508;2023-02-05T18:53:45;18.77;;;2.42;;
17935;SDS011;9093;52.062;4.508;2023-02-05T18:56:26;26.77;;;2.65;;